sensor_id;sensor_type;location;lat;lon;timestamp;P1;durP1;ratioP1;P2;durP2;ratioP2
9117;SDS011;4594;50.994;7.126;2024-02-26T00:01:42;1.83;;;1.77;;
9117;SDS011;4594;50.994;7.126;2024-02-26T00:04:11;1.90;;;1.90;;
9117;SDS011;4594;50.994;7.126;2024-02-26T00:06:38;1.57;;;1.57;;
9117;SDS011;4594;50.994;7.126;2024-02-26T00:09:06;1.73;;;1.73;;
9117;SDS011;4594;50.994;7.126;2024-02-26T00:11:32;1.90;;;1.80;;
9117;SDS011;4594;50.994;7.126;2024-02-26T00:14:00;1.60;;;1.60;;
9117;SDS011;4594;50.994;7.126;2024-02-26T00:16:25;1.80;;;1.80;;
9117;SDS011;4594;50.994;7.126;2024-02-26T00:18:51;13.77;;;8.80;;
9117;SDS011;4594;50.994;7.126;2024-02-26T00:21:17;4.63;;;4.23;;
9117;SDS011;4594;50.994;7.126;2024-02-26T00:23:43;3.10;;;2.90;;
9117;SDS011;4594;50.994;7.126;2024-02-26T00:26:08;4.73;;;3.67;;
9117;SDS011;4594;50.994;7.126;2024-02-26T00:28:35;4.27;;;3.87;;
9117;SDS011;4594;50.994;7.126;2024-02-26T00:31:02;2.63;;;2.50;;
9117;SDS011;4594;50.994;7.126;2024-02-26T00:33:28;2.33;;;2.23;;
9117;SDS011;4594;50.994;7.126;2024-02-26T00:35:54;2.20;;;2.10;;
9117;SDS011;4594;50.994;7.126;2024-02-26T00:38:19;5.50;;;3.30;;
9117;SDS011;4594;50.994;7.126;2024-02-26T00:40:45;2.60;;;2.47;;
9117;SDS011;4594;50.994;7.126;2024-02-26T00:43:11;3.03;;;2.83;;
9117;SDS011;4594;50.994;7.126;2024-02-26T00:45:37;2.90;;;2.70;;
9117;SDS011;4594;50.994;7.126;2024-02-26T00:48:03;5.97;;;4.83;;
9117;SDS011;4594;50.994;7.126;2024-02-26T00:50:33;3.47;;;3.10;;
9117;SDS011;4594;50.994;7.126;2024-02-26T00:53:00;7.67;;;5.40;;
9117;SDS011;4594;50.994;7.126;2024-02-26T00:55:27;3.10;;;2.90;;
9117;SDS011;4594;50.994;7.126;2024-02-26T00:57:53;7.50;;;4.80;;
9117;SDS011;4594;50.994;7.126;2024-02-26T01:00:18;4.80;;;3.07;;
9117;SDS011;4594;50.994;7.126;2024-02-26T01:02:44;4.03;;;3.70;;
9117;SDS011;4594;50.994;7.126;2024-02-26T01:05:13;4.67;;;4.17;;
9117;SDS011;4594;50.994;7.126;2024-02-26T01:07:39;3.70;;;3.40;;
9117;SDS011;4594;50.994;7.126;2024-02-26T01:10:06;3.37;;;3.10;;
9117;SDS011;4594;50.994;7.126;2024-02-26T01:12:32;2.87;;;2.60;;
9117;SDS011;4594;50.994;7.126;2024-02-26T01:14:59;4.47;;;2.80;;
9117;SDS011;4594;50.994;7.126;2024-02-26T01:17:25;2.83;;;2.60;;
9117;SDS011;4594;50.994;7.126;2024-02-26T01:19:51;7.57;;;4.50;;
9117;SDS011;4594;50.994;7.126;2024-02-26T01:22:18;4.43;;;4.00;;
9117;SDS011;4594;50.994;7.126;2024-02-26T01:24:44;3.23;;;3.00;;
9117;SDS011;4594;50.994;7.126;2024-02-26T01:27:09;3.33;;;3.13;;
9117;SDS011;4594;50.994;7.126;2024-02-26T01:29:35;2.30;;;2.20;;
9117;SDS011;4594;50.994;7.126;2024-02-26T01:32:01;2.53;;;2.43;;
9117;SDS011;4594;50.994;7.126;2024-02-26T01:34:27;2.60;;;2.40;;
9117;SDS011;4594;50.994;7.126;2024-02-26T01:36:53;2.03;;;2.00;;
9117;SDS011;4594;50.994;7.126;2024-02-26T01:39:21;2.43;;;2.33;;
9117;SDS011;4594;50.994;7.126;2024-02-26T01:41:47;3.37;;;3.00;;
9117;SDS011;4594;50.994;7.126;2024-02-26T01:44:13;2.30;;;2.20;;
9117;SDS011;4594;50.994;7.126;2024-02-26T01:46:39;2.30;;;2.20;;
9117;SDS011;4594;50.994;7.126;2024-02-26T01:49:05;2.30;;;2.20;;
9117;SDS011;4594;50.994;7.126;2024-02-26T01:51:33;4.33;;;2.83;;
9117;SDS011;4594;50.994;7.126;2024-02-26T01:54:01;9.27;;;4.97;;
9117;SDS011;4594;50.994;7.126;2024-02-26T01:56:29;14.97;;;7.50;;
9117;SDS011;4594;50.994;7.126;2024-02-26T01:58:59;9.47;;;4.93;;
9117;SDS011;4594;50.994;7.126;2024-02-26T02:01:29;4.00;;;3.47;;
9117;SDS011;4594;50.994;7.126;2024-02-26T02:03:58;2.63;;;2.50;;
9117;SDS011;4594;50.994;7.126;2024-02-26T02:06:25;2.10;;;2.10;;
9117;SDS011;4594;50.994;7.126;2024-02-26T02:08:52;2.10;;;2.10;;
9117;SDS011;4594;50.994;7.126;2024-02-26T02:11:20;1.80;;;1.70;;
9117;SDS011;4594;50.994;7.126;2024-02-26T02:13:45;2.00;;;1.90;;
9117;SDS011;4594;50.994;7.126;2024-02-26T02:16:12;2.10;;;2.00;;
9117;SDS011;4594;50.994;7.126;2024-02-26T02:18:38;1.70;;;1.70;;
9117;SDS011;4594;50.994;7.126;2024-02-26T02:21:04;1.77;;;1.77;;
9117;SDS011;4594;50.994;7.126;2024-02-26T02:23:29;1.77;;;1.77;;
9117;SDS011;4594;50.994;7.126;2024-02-26T02:25:56;1.77;;;1.77;;
9117;SDS011;4594;50.994;7.126;2024-02-26T02:28:24;1.80;;;1.80;;
9117;SDS011;4594;50.994;7.126;2024-02-26T02:30:52;1.73;;;1.73;;
9117;SDS011;4594;50.994;7.126;2024-02-26T02:33:19;2.00;;;2.00;;
9117;SDS011;4594;50.994;7.126;2024-02-26T02:35:47;1.83;;;1.80;;
9117;SDS011;4594;50.994;7.126;2024-02-26T02:38:13;3.03;;;2.20;;
9117;SDS011;4594;50.994;7.126;2024-02-26T02:40:39;1.73;;;1.73;;
9117;SDS011;4594;50.994;7.126;2024-02-26T02:43:04;1.80;;;1.80;;
9117;SDS011;4594;50.994;7.126;2024-02-26T02:45:30;1.60;;;1.60;;
9117;SDS011;4594;50.994;7.126;2024-02-26T02:47:56;1.80;;;1.70;;
9117;SDS011;4594;50.994;7.126;2024-02-26T02:50:22;1.97;;;1.80;;
9117;SDS011;4594;50.994;7.126;2024-02-26T02:52:48;1.70;;;1.70;;
9117;SDS011;4594;50.994;7.126;2024-02-26T02:55:15;1.70;;;1.70;;
9117;SDS011;4594;50.994;7.126;2024-02-26T02:57:41;1.80;;;1.80;;
9117;SDS011;4594;50.994;7.126;2024-02-26T03:00:10;1.90;;;1.80;;
9117;SDS011;4594;50.994;7.126;2024-02-26T03:02:37;1.63;;;1.53;;
9117;SDS011;4594;50.994;7.126;2024-02-26T03:05:03;1.50;;;1.50;;
9117;SDS011;4594;50.994;7.126;2024-02-26T03:07:29;1.77;;;1.77;;
9117;SDS011;4594;50.994;7.126;2024-02-26T03:09:55;1.60;;;1.60;;
9117;SDS011;4594;50.994;7.126;2024-02-26T03:12:21;1.70;;;1.70;;
9117;SDS011;4594;50.994;7.126;2024-02-26T03:14:46;2.03;;;1.97;;
9117;SDS011;4594;50.994;7.126;2024-02-26T03:17:12;1.70;;;1.70;;
9117;SDS011;4594;50.994;7.126;2024-02-26T03:19:38;2.93;;;1.60;;
9117;SDS011;4594;50.994;7.126;2024-02-26T03:22:03;2.43;;;1.97;;
9117;SDS011;4594;50.994;7.126;2024-02-26T03:24:29;1.70;;;1.70;;
9117;SDS011;4594;50.994;7.126;2024-02-26T03:26:55;3.17;;;1.80;;
9117;SDS011;4594;50.994;7.126;2024-02-26T03:29:21;1.60;;;1.60;;
9117;SDS011;4594;50.994;7.126;2024-02-26T03:31:47;1.97;;;1.93;;
9117;SDS011;4594;50.994;7.126;2024-02-26T03:34:12;1.63;;;1.63;;
9117;SDS011;4594;50.994;7.126;2024-02-26T03:36:39;1.77;;;1.77;;
9117;SDS011;4594;50.994;7.126;2024-02-26T03:39:07;1.80;;;1.80;;
9117;SDS011;4594;50.994;7.126;2024-02-26T03:41:35;1.93;;;1.80;;
9117;SDS011;4594;50.994;7.126;2024-02-26T03:44:01;1.90;;;1.80;;
9117;SDS011;4594;50.994;7.126;2024-02-26T03:46:27;1.70;;;1.70;;
9117;SDS011;4594;50.994;7.126;2024-02-26T03:48:53;1.63;;;1.63;;
9117;SDS011;4594;50.994;7.126;2024-02-26T03:51:19;1.70;;;1.70;;
9117;SDS011;4594;50.994;7.126;2024-02-26T03:53:44;1.60;;;1.60;;
9117;SDS011;4594;50.994;7.126;2024-02-26T03:56:13;1.60;;;1.60;;
9117;SDS011;4594;50.994;7.126;2024-02-26T03:58:39;1.70;;;1.70;;
9117;SDS011;4594;50.994;7.126;2024-02-26T04:01:07;2.10;;;1.80;;
9117;SDS011;4594;50.994;7.126;2024-02-26T04:03:33;1.63;;;1.63;;
9117;SDS011;4594;50.994;7.126;2024-02-26T04:06:00;1.70;;;1.70;;
9117;SDS011;4594;50.994;7.126;2024-02-26T04:08:26;1.70;;;1.70;;
9117;SDS011;4594;50.994;7.126;2024-02-26T04:10:52;1.70;;;1.70;;
9117;SDS011;4594;50.994;7.126;2024-02-26T04:13:17;1.60;;;1.60;;
9117;SDS011;4594;50.994;7.126;2024-02-26T04:15:43;1.60;;;1.60;;
9117;SDS011;4594;50.994;7.126;2024-02-26T04:18:09;1.63;;;1.63;;
9117;SDS011;4594;50.994;7.126;2024-02-26T04:20:35;1.90;;;1.80;;
9117;SDS011;4594;50.994;7.126;2024-02-26T04:23:02;1.70;;;1.70;;
9117;SDS011;4594;50.994;7.126;2024-02-26T04:25:28;1.60;;;1.60;;
9117;SDS011;4594;50.994;7.126;2024-02-26T04:27:54;2.73;;;2.17;;
9117;SDS011;4594;50.994;7.126;2024-02-26T04:30:20;1.40;;;1.40;;
9117;SDS011;4594;50.994;7.126;2024-02-26T04:32:46;2.00;;;2.00;;
9117;SDS011;4594;50.994;7.126;2024-02-26T04:35:11;1.70;;;1.63;;
9117;SDS011;4594;50.994;7.126;2024-02-26T04:37:37;1.63;;;1.63;;
9117;SDS011;4594;50.994;7.126;2024-02-26T04:40:03;1.97;;;1.80;;
9117;SDS011;4594;50.994;7.126;2024-02-26T04:42:29;1.70;;;1.60;;
9117;SDS011;4594;50.994;7.126;2024-02-26T04:44:55;1.77;;;1.77;;
9117;SDS011;4594;50.994;7.126;2024-02-26T04:47:21;2.00;;;1.90;;
9117;SDS011;4594;50.994;7.126;2024-02-26T04:49:47;1.50;;;1.50;;
9117;SDS011;4594;50.994;7.126;2024-02-26T04:52:15;1.57;;;1.57;;
9117;SDS011;4594;50.994;7.126;2024-02-26T04:54:40;2.20;;;1.70;;
9117;SDS011;4594;50.994;7.126;2024-02-26T04:57:06;1.80;;;1.80;;
9117;SDS011;4594;50.994;7.126;2024-02-26T04:59:32;1.80;;;1.70;;
9117;SDS011;4594;50.994;7.126;2024-02-26T05:01:57;1.70;;;1.70;;
9117;SDS011;4594;50.994;7.126;2024-02-26T05:04:23;1.83;;;1.63;;
9117;SDS011;4594;50.994;7.126;2024-02-26T05:06:49;1.67;;;1.60;;
9117;SDS011;4594;50.994;7.126;2024-02-26T05:09:14;1.70;;;1.70;;
9117;SDS011;4594;50.994;7.126;2024-02-26T05:11:40;1.60;;;1.60;;
9117;SDS011;4594;50.994;7.126;2024-02-26T05:14:06;1.80;;;1.80;;
9117;SDS011;4594;50.994;7.126;2024-02-26T05:16:31;1.70;;;1.60;;
9117;SDS011;4594;50.994;7.126;2024-02-26T05:18:57;1.70;;;1.60;;
9117;SDS011;4594;50.994;7.126;2024-02-26T05:21:23;1.80;;;1.70;;
9117;SDS011;4594;50.994;7.126;2024-02-26T05:23:48;1.70;;;1.70;;
9117;SDS011;4594;50.994;7.126;2024-02-26T05:26:20;1.77;;;1.67;;
9117;SDS011;4594;50.994;7.126;2024-02-26T05:28:47;2.10;;;2.10;;
9117;SDS011;4594;50.994;7.126;2024-02-26T05:31:14;1.83;;;1.73;;
9117;SDS011;4594;50.994;7.126;2024-02-26T05:33:40;1.83;;;1.83;;
9117;SDS011;4594;50.994;7.126;2024-02-26T05:36:06;1.80;;;1.80;;
9117;SDS011;4594;50.994;7.126;2024-02-26T05:38:31;1.80;;;1.70;;
9117;SDS011;4594;50.994;7.126;2024-02-26T05:40:57;1.73;;;1.73;;
9117;SDS011;4594;50.994;7.126;2024-02-26T05:43:24;2.20;;;2.00;;
9117;SDS011;4594;50.994;7.126;2024-02-26T05:45:53;2.20;;;2.00;;
9117;SDS011;4594;50.994;7.126;2024-02-26T05:48:19;1.70;;;1.70;;
9117;SDS011;4594;50.994;7.126;2024-02-26T05:50:45;1.70;;;1.70;;
9117;SDS011;4594;50.994;7.126;2024-02-26T05:53:12;1.90;;;1.90;;
9117;SDS011;4594;50.994;7.126;2024-02-26T05:55:37;1.80;;;1.70;;
9117;SDS011;4594;50.994;7.126;2024-02-26T05:58:03;1.80;;;1.70;;
9117;SDS011;4594;50.994;7.126;2024-02-26T06:00:29;1.70;;;1.70;;
9117;SDS011;4594;50.994;7.126;2024-02-26T06:02:55;2.07;;;2.00;;
9117;SDS011;4594;50.994;7.126;2024-02-26T06:05:21;1.83;;;1.70;;
9117;SDS011;4594;50.994;7.126;2024-02-26T06:07:47;1.83;;;1.83;;
9117;SDS011;4594;50.994;7.126;2024-02-26T06:10:12;2.10;;;2.00;;
9117;SDS011;4594;50.994;7.126;2024-02-26T06:12:39;1.90;;;1.80;;
9117;SDS011;4594;50.994;7.126;2024-02-26T06:15:05;2.00;;;1.90;;
9117;SDS011;4594;50.994;7.126;2024-02-26T06:17:31;1.87;;;1.87;;
9117;SDS011;4594;50.994;7.126;2024-02-26T06:19:57;2.20;;;2.00;;
9117;SDS011;4594;50.994;7.126;2024-02-26T06:22:24;2.20;;;1.80;;
9117;SDS011;4594;50.994;7.126;2024-02-26T06:24:50;2.00;;;1.90;;
9117;SDS011;4594;50.994;7.126;2024-02-26T06:27:16;2.10;;;2.00;;
9117;SDS011;4594;50.994;7.126;2024-02-26T06:29:41;2.03;;;1.93;;
9117;SDS011;4594;50.994;7.126;2024-02-26T06:32:07;2.00;;;2.00;;
9117;SDS011;4594;50.994;7.126;2024-02-26T06:34:32;1.90;;;1.90;;
9117;SDS011;4594;50.994;7.126;2024-02-26T06:36:58;2.17;;;2.07;;
9117;SDS011;4594;50.994;7.126;2024-02-26T06:39:24;2.50;;;2.10;;
9117;SDS011;4594;50.994;7.126;2024-02-26T06:41:49;3.37;;;3.17;;
9117;SDS011;4594;50.994;7.126;2024-02-26T06:44:15;8.90;;;7.77;;
9117;SDS011;4594;50.994;7.126;2024-02-26T06:46:41;11.17;;;8.23;;
9117;SDS011;4594;50.994;7.126;2024-02-26T06:49:06;20.50;;;13.57;;
9117;SDS011;4594;50.994;7.126;2024-02-26T06:51:32;15.23;;;10.70;;
9117;SDS011;4594;50.994;7.126;2024-02-26T06:53:57;7.20;;;5.93;;
9117;SDS011;4594;50.994;7.126;2024-02-26T06:56:23;4.20;;;3.90;;
9117;SDS011;4594;50.994;7.126;2024-02-26T06:58:49;3.70;;;3.40;;
9117;SDS011;4594;50.994;7.126;2024-02-26T07:01:14;4.27;;;3.87;;
9117;SDS011;4594;50.994;7.126;2024-02-26T07:03:40;3.20;;;3.00;;
9117;SDS011;4594;50.994;7.126;2024-02-26T07:06:06;2.77;;;2.67;;
9117;SDS011;4594;50.994;7.126;2024-02-26T07:08:33;2.53;;;2.43;;
9117;SDS011;4594;50.994;7.126;2024-02-26T07:10:59;2.13;;;2.13;;
9117;SDS011;4594;50.994;7.126;2024-02-26T07:13:24;2.20;;;2.10;;
9117;SDS011;4594;50.994;7.126;2024-02-26T07:15:50;2.43;;;2.33;;
9117;SDS011;4594;50.994;7.126;2024-02-26T07:18:16;2.27;;;2.17;;
9117;SDS011;4594;50.994;7.126;2024-02-26T07:20:41;2.80;;;2.60;;
9117;SDS011;4594;50.994;7.126;2024-02-26T07:23:07;2.50;;;2.37;;
9117;SDS011;4594;50.994;7.126;2024-02-26T07:25:33;2.10;;;2.10;;
9117;SDS011;4594;50.994;7.126;2024-02-26T07:27:59;2.70;;;2.50;;
9117;SDS011;4594;50.994;7.126;2024-02-26T07:30:25;2.67;;;2.47;;
9117;SDS011;4594;50.994;7.126;2024-02-26T07:32:50;2.50;;;2.40;;
9117;SDS011;4594;50.994;7.126;2024-02-26T07:35:16;2.27;;;2.17;;
9117;SDS011;4594;50.994;7.126;2024-02-26T07:37:42;2.50;;;2.40;;
9117;SDS011;4594;50.994;7.126;2024-02-26T07:40:08;2.93;;;2.80;;
9117;SDS011;4594;50.994;7.126;2024-02-26T07:42:34;2.50;;;2.40;;
9117;SDS011;4594;50.994;7.126;2024-02-26T07:45:00;2.53;;;2.33;;
9117;SDS011;4594;50.994;7.126;2024-02-26T07:47:27;2.37;;;2.27;;
9117;SDS011;4594;50.994;7.126;2024-02-26T07:49:53;2.60;;;2.40;;
9117;SDS011;4594;50.994;7.126;2024-02-26T07:52:18;2.30;;;2.20;;
9117;SDS011;4594;50.994;7.126;2024-02-26T07:54:44;2.40;;;2.30;;
9117;SDS011;4594;50.994;7.126;2024-02-26T07:57:09;3.93;;;2.57;;
9117;SDS011;4594;50.994;7.126;2024-02-26T07:59:35;2.17;;;2.17;;
9117;SDS011;4594;50.994;7.126;2024-02-26T08:02:01;2.00;;;2.00;;
9117;SDS011;4594;50.994;7.126;2024-02-26T08:04:28;2.40;;;2.30;;
9117;SDS011;4594;50.994;7.126;2024-02-26T08:06:54;2.50;;;2.33;;
9117;SDS011;4594;50.994;7.126;2024-02-26T08:09:20;2.57;;;2.33;;
9117;SDS011;4594;50.994;7.126;2024-02-26T08:11:46;2.30;;;2.30;;
9117;SDS011;4594;50.994;7.126;2024-02-26T08:14:12;2.43;;;2.33;;
9117;SDS011;4594;50.994;7.126;2024-02-26T08:16:37;2.53;;;2.43;;
9117;SDS011;4594;50.994;7.126;2024-02-26T08:19:03;2.63;;;2.50;;
9117;SDS011;4594;50.994;7.126;2024-02-26T08:21:29;2.53;;;2.43;;
9117;SDS011;4594;50.994;7.126;2024-02-26T08:23:55;2.37;;;2.27;;
9117;SDS011;4594;50.994;7.126;2024-02-26T08:26:20;2.43;;;2.33;;
9117;SDS011;4594;50.994;7.126;2024-02-26T08:28:47;2.43;;;2.33;;
9117;SDS011;4594;50.994;7.126;2024-02-26T08:31:14;2.30;;;2.20;;
9117;SDS011;4594;50.994;7.126;2024-02-26T08:33:39;2.10;;;2.10;;
9117;SDS011;4594;50.994;7.126;2024-02-26T08:36:05;2.40;;;2.30;;
9117;SDS011;4594;50.994;7.126;2024-02-26T08:38:31;2.57;;;2.47;;
9117;SDS011;4594;50.994;7.126;2024-02-26T08:40:59;2.00;;;2.00;;
9117;SDS011;4594;50.994;7.126;2024-02-26T08:43:29;2.37;;;2.27;;
9117;SDS011;4594;50.994;7.126;2024-02-26T08:45:54;2.33;;;2.23;;
9117;SDS011;4594;50.994;7.126;2024-02-26T08:48:21;2.23;;;2.13;;
9117;SDS011;4594;50.994;7.126;2024-02-26T08:50:47;2.17;;;2.13;;
9117;SDS011;4594;50.994;7.126;2024-02-26T08:53:13;2.40;;;2.30;;
9117;SDS011;4594;50.994;7.126;2024-02-26T08:55:38;2.00;;;2.00;;
9117;SDS011;4594;50.994;7.126;2024-02-26T08:58:04;3.73;;;2.40;;
9117;SDS011;4594;50.994;7.126;2024-02-26T09:00:30;2.20;;;2.10;;
9117;SDS011;4594;50.994;7.126;2024-02-26T09:02:56;2.40;;;2.30;;
9117;SDS011;4594;50.994;7.126;2024-02-26T09:05:21;2.60;;;2.50;;
9117;SDS011;4594;50.994;7.126;2024-02-26T09:07:47;2.40;;;2.30;;
9117;SDS011;4594;50.994;7.126;2024-02-26T09:10:13;2.33;;;2.23;;
9117;SDS011;4594;50.994;7.126;2024-02-26T09:12:38;2.40;;;2.30;;
9117;SDS011;4594;50.994;7.126;2024-02-26T09:15:06;3.50;;;2.73;;
9117;SDS011;4594;50.994;7.126;2024-02-26T09:17:32;2.90;;;2.70;;
9117;SDS011;4594;50.994;7.126;2024-02-26T09:19:58;2.73;;;2.53;;
9117;SDS011;4594;50.994;7.126;2024-02-26T09:22:24;2.40;;;2.30;;
9117;SDS011;4594;50.994;7.126;2024-02-26T09:24:49;3.10;;;2.90;;
9117;SDS011;4594;50.994;7.126;2024-02-26T09:27:17;2.63;;;2.53;;
9117;SDS011;4594;50.994;7.126;2024-02-26T09:29:43;2.83;;;2.63;;
9117;SDS011;4594;50.994;7.126;2024-02-26T09:32:08;2.97;;;2.77;;
9117;SDS011;4594;50.994;7.126;2024-02-26T09:34:34;2.50;;;2.40;;
9117;SDS011;4594;50.994;7.126;2024-02-26T09:36:59;2.77;;;2.57;;
9117;SDS011;4594;50.994;7.126;2024-02-26T09:39:26;2.93;;;2.73;;
9117;SDS011;4594;50.994;7.126;2024-02-26T09:41:52;2.73;;;2.63;;
9117;SDS011;4594;50.994;7.126;2024-02-26T09:44:19;3.57;;;2.70;;
9117;SDS011;4594;50.994;7.126;2024-02-26T09:46:48;2.40;;;2.30;;
9117;SDS011;4594;50.994;7.126;2024-02-26T09:49:17;3.10;;;2.90;;
9117;SDS011;4594;50.994;7.126;2024-02-26T09:51:46;2.67;;;2.47;;
9117;SDS011;4594;50.994;7.126;2024-02-26T09:54:14;3.40;;;2.90;;
9117;SDS011;4594;50.994;7.126;2024-02-26T09:56:41;3.50;;;3.20;;
9117;SDS011;4594;50.994;7.126;2024-02-26T09:59:13;3.03;;;2.83;;
9117;SDS011;4594;50.994;7.126;2024-02-26T10:01:42;3.40;;;3.20;;
9117;SDS011;4594;50.994;7.126;2024-02-26T10:04:11;2.93;;;2.83;;
9117;SDS011;4594;50.994;7.126;2024-02-26T10:06:38;3.17;;;3.00;;
9117;SDS011;4594;50.994;7.126;2024-02-26T10:09:05;3.20;;;2.97;;
9117;SDS011;4594;50.994;7.126;2024-02-26T10:11:34;3.20;;;3.00;;
9117;SDS011;4594;50.994;7.126;2024-02-26T10:14:02;3.87;;;3.10;;
9117;SDS011;4594;50.994;7.126;2024-02-26T10:16:28;3.20;;;3.00;;
9117;SDS011;4594;50.994;7.126;2024-02-26T10:18:54;3.23;;;3.03;;
9117;SDS011;4594;50.994;7.126;2024-02-26T10:21:20;2.37;;;2.30;;
9117;SDS011;4594;50.994;7.126;2024-02-26T10:23:47;3.10;;;2.90;;
9117;SDS011;4594;50.994;7.126;2024-02-26T10:26:15;3.63;;;3.07;;
9117;SDS011;4594;50.994;7.126;2024-02-26T10:28:42;3.67;;;3.37;;
9117;SDS011;4594;50.994;7.126;2024-02-26T10:31:09;5.30;;;3.50;;
9117;SDS011;4594;50.994;7.126;2024-02-26T10:33:36;8.43;;;4.83;;
9117;SDS011;4594;50.994;7.126;2024-02-26T10:36:04;6.13;;;4.73;;
9117;SDS011;4594;50.994;7.126;2024-02-26T10:38:31;4.00;;;3.63;;
9117;SDS011;4594;50.994;7.126;2024-02-26T10:40:57;16.07;;;7.53;;
9117;SDS011;4594;50.994;7.126;2024-02-26T10:43:25;6.83;;;4.70;;
9117;SDS011;4594;50.994;7.126;2024-02-26T10:45:51;11.17;;;6.37;;
9117;SDS011;4594;50.994;7.126;2024-02-26T10:48:17;13.37;;;6.43;;
9117;SDS011;4594;50.994;7.126;2024-02-26T10:50:43;8.20;;;4.93;;
9117;SDS011;4594;50.994;7.126;2024-02-26T10:53:30;9.27;;;6.37;;
9117;SDS011;4594;50.994;7.126;2024-02-26T10:55:59;11.50;;;8.57;;
9117;SDS011;4594;50.994;7.126;2024-02-26T10:58:30;6.37;;;5.47;;
9117;SDS011;4594;50.994;7.126;2024-02-26T11:00:57;8.77;;;5.27;;
9117;SDS011;4594;50.994;7.126;2024-02-26T11:03:24;5.03;;;4.37;;
9117;SDS011;4594;50.994;7.126;2024-02-26T11:05:51;8.27;;;5.23;;
9117;SDS011;4594;50.994;7.126;2024-02-26T11:08:18;13.97;;;6.70;;
9117;SDS011;4594;50.994;7.126;2024-02-26T11:10:47;7.43;;;4.67;;
9117;SDS011;4594;50.994;7.126;2024-02-26T11:13:15;6.37;;;4.50;;
9117;SDS011;4594;50.994;7.126;2024-02-26T11:15:44;12.00;;;5.67;;
9117;SDS011;4594;50.994;7.126;2024-02-26T11:18:13;6.10;;;4.40;;
9117;SDS011;4594;50.994;7.126;2024-02-26T11:20:41;5.63;;;3.80;;
9117;SDS011;4594;50.994;7.126;2024-02-26T11:23:08;3.60;;;3.40;;
9117;SDS011;4594;50.994;7.126;2024-02-26T11:25:34;4.63;;;4.10;;
9117;SDS011;4594;50.994;7.126;2024-02-26T11:28:03;7.27;;;4.63;;
9117;SDS011;4594;50.994;7.126;2024-02-26T11:30:34;11.87;;;6.47;;
9117;SDS011;4594;50.994;7.126;2024-02-26T11:33:08;8.90;;;5.40;;
9117;SDS011;4594;50.994;7.126;2024-02-26T11:35:37;7.13;;;4.37;;
9117;SDS011;4594;50.994;7.126;2024-02-26T11:38:04;7.23;;;4.70;;
9117;SDS011;4594;50.994;7.126;2024-02-26T11:40:31;8.47;;;6.07;;
9117;SDS011;4594;50.994;7.126;2024-02-26T11:42:58;7.10;;;4.40;;
9117;SDS011;4594;50.994;7.126;2024-02-26T11:48:14;6.50;;;4.50;;
9117;SDS011;4594;50.994;7.126;2024-02-26T11:50:45;4.57;;;3.50;;
9117;SDS011;4594;50.994;7.126;2024-02-26T11:53:31;6.30;;;4.80;;
9117;SDS011;4594;50.994;7.126;2024-02-26T11:58:42;4.03;;;3.63;;
9117;SDS011;4594;50.994;7.126;2024-02-26T12:04:19;14.90;;;7.67;;
9117;SDS011;4594;50.994;7.126;2024-02-26T12:07:02;6.27;;;5.00;;
9117;SDS011;4594;50.994;7.126;2024-02-26T12:12:08;4.23;;;3.83;;
9117;SDS011;4594;50.994;7.126;2024-02-26T12:14:51;4.53;;;4.13;;
9117;SDS011;4594;50.994;7.126;2024-02-26T12:17:20;3.20;;;3.00;;
9117;SDS011;4594;50.994;7.126;2024-02-26T12:19:48;5.33;;;3.20;;
9117;SDS011;4594;50.994;7.126;2024-02-26T12:22:15;3.57;;;3.00;;
9117;SDS011;4594;50.994;7.126;2024-02-26T12:24:41;3.23;;;3.03;;
9117;SDS011;4594;50.994;7.126;2024-02-26T12:27:10;3.07;;;2.97;;
9117;SDS011;4594;50.994;7.126;2024-02-26T12:29:36;3.03;;;2.93;;
9117;SDS011;4594;50.994;7.126;2024-02-26T12:32:03;3.20;;;3.10;;
9117;SDS011;4594;50.994;7.126;2024-02-26T12:34:30;4.93;;;3.00;;
9117;SDS011;4594;50.994;7.126;2024-02-26T12:36:57;5.63;;;3.47;;
9117;SDS011;4594;50.994;7.126;2024-02-26T12:39:23;3.10;;;2.97;;
9117;SDS011;4594;50.994;7.126;2024-02-26T12:41:49;3.30;;;3.10;;
9117;SDS011;4594;50.994;7.126;2024-02-26T12:44:23;3.20;;;2.90;;
9117;SDS011;4594;50.994;7.126;2024-02-26T12:46:50;3.30;;;3.00;;
9117;SDS011;4594;50.994;7.126;2024-02-26T12:49:25;3.17;;;2.97;;
9117;SDS011;4594;50.994;7.126;2024-02-26T12:51:50;3.60;;;3.30;;
9117;SDS011;4594;50.994;7.126;2024-02-26T12:54:16;3.10;;;2.90;;
9117;SDS011;4594;50.994;7.126;2024-02-26T12:56:42;5.37;;;2.87;;
9117;SDS011;4594;50.994;7.126;2024-02-26T12:59:08;3.23;;;3.03;;
9117;SDS011;4594;50.994;7.126;2024-02-26T13:01:34;3.20;;;2.90;;
9117;SDS011;4594;50.994;7.126;2024-02-26T13:04:01;3.47;;;3.27;;
9117;SDS011;4594;50.994;7.126;2024-02-26T13:06:31;3.43;;;3.23;;
9117;SDS011;4594;50.994;7.126;2024-02-26T13:08:58;3.40;;;3.20;;
9117;SDS011;4594;50.994;7.126;2024-02-26T13:11:24;3.53;;;3.33;;
9117;SDS011;4594;50.994;7.126;2024-02-26T13:13:51;3.90;;;3.57;;
9117;SDS011;4594;50.994;7.126;2024-02-26T13:16:16;3.33;;;3.07;;
9117;SDS011;4594;50.994;7.126;2024-02-26T13:18:42;6.33;;;3.53;;
9117;SDS011;4594;50.994;7.126;2024-02-26T13:23:40;3.83;;;3.53;;
9117;SDS011;4594;50.994;7.126;2024-02-26T13:26:07;3.40;;;3.20;;
9117;SDS011;4594;50.994;7.126;2024-02-26T13:28:36;4.13;;;3.47;;
9117;SDS011;4594;50.994;7.126;2024-02-26T13:31:02;3.50;;;3.30;;
9117;SDS011;4594;50.994;7.126;2024-02-26T13:33:32;3.73;;;3.43;;
9117;SDS011;4594;50.994;7.126;2024-02-26T13:35:59;4.13;;;3.83;;
9117;SDS011;4594;50.994;7.126;2024-02-26T13:38:25;4.27;;;3.87;;
9117;SDS011;4594;50.994;7.126;2024-02-26T13:40:53;3.40;;;3.10;;
9117;SDS011;4594;50.994;7.126;2024-02-26T13:43:19;14.13;;;10.20;;
9117;SDS011;4594;50.994;7.126;2024-02-26T13:45:45;7.77;;;5.57;;
9117;SDS011;4594;50.994;7.126;2024-02-26T13:48:12;5.43;;;4.17;;
9117;SDS011;4594;50.994;7.126;2024-02-26T13:50:39;4.70;;;4.23;;
9117;SDS011;4594;50.994;7.126;2024-02-26T13:53:08;4.37;;;3.97;;
9117;SDS011;4594;50.994;7.126;2024-02-26T13:55:34;4.07;;;3.67;;
9117;SDS011;4594;50.994;7.126;2024-02-26T13:58:00;4.10;;;3.80;;
9117;SDS011;4594;50.994;7.126;2024-02-26T14:00:27;4.07;;;3.77;;
9117;SDS011;4594;50.994;7.126;2024-02-26T14:03:00;4.47;;;4.07;;
9117;SDS011;4594;50.994;7.126;2024-02-26T14:05:26;4.03;;;3.63;;
9117;SDS011;4594;50.994;7.126;2024-02-26T14:07:52;4.53;;;4.13;;
9117;SDS011;4594;50.994;7.126;2024-02-26T14:10:19;4.77;;;4.27;;
9117;SDS011;4594;50.994;7.126;2024-02-26T14:12:46;4.10;;;3.70;;
9117;SDS011;4594;50.994;7.126;2024-02-26T14:15:12;4.43;;;4.03;;
9117;SDS011;4594;50.994;7.126;2024-02-26T14:17:38;5.53;;;4.60;;
9117;SDS011;4594;50.994;7.126;2024-02-26T14:20:03;5.43;;;4.70;;
9117;SDS011;4594;50.994;7.126;2024-02-26T14:22:30;5.47;;;4.27;;
9117;SDS011;4594;50.994;7.126;2024-02-26T14:24:56;5.30;;;4.70;;
9117;SDS011;4594;50.994;7.126;2024-02-26T14:27:22;5.40;;;4.90;;
9117;SDS011;4594;50.994;7.126;2024-02-26T14:29:48;6.63;;;4.80;;
9117;SDS011;4594;50.994;7.126;2024-02-26T14:32:15;5.13;;;4.63;;
9117;SDS011;4594;50.994;7.126;2024-02-26T14:34:41;4.77;;;4.37;;
9117;SDS011;4594;50.994;7.126;2024-02-26T14:37:06;4.87;;;4.47;;
9117;SDS011;4594;50.994;7.126;2024-02-26T14:39:32;6.90;;;5.87;;
9117;SDS011;4594;50.994;7.126;2024-02-26T14:41:59;10.07;;;7.33;;
9117;SDS011;4594;50.994;7.126;2024-02-26T14:44:26;9.63;;;7.43;;
9117;SDS011;4594;50.994;7.126;2024-02-26T14:46:52;8.80;;;7.13;;
9117;SDS011;4594;50.994;7.126;2024-02-26T14:49:18;9.80;;;7.77;;
9117;SDS011;4594;50.994;7.126;2024-02-26T14:51:44;18.17;;;12.43;;
9117;SDS011;4594;50.994;7.126;2024-02-26T14:54:11;25.67;;;14.50;;
9117;SDS011;4594;50.994;7.126;2024-02-26T14:56:37;24.70;;;15.77;;
9117;SDS011;4594;50.994;7.126;2024-02-26T14:59:03;27.17;;;16.23;;
9117;SDS011;4594;50.994;7.126;2024-02-26T15:01:29;16.30;;;9.80;;
9117;SDS011;4594;50.994;7.126;2024-02-26T15:03:55;21.07;;;14.33;;
9117;SDS011;4594;50.994;7.126;2024-02-26T15:06:22;22.73;;;13.90;;
9117;SDS011;4594;50.994;7.126;2024-02-26T15:08:48;14.77;;;10.20;;
9117;SDS011;4594;50.994;7.126;2024-02-26T15:11:14;12.63;;;8.63;;
9117;SDS011;4594;50.994;7.126;2024-02-26T15:13:40;9.63;;;7.63;;
9117;SDS011;4594;50.994;7.126;2024-02-26T15:16:06;13.63;;;8.33;;
9117;SDS011;4594;50.994;7.126;2024-02-26T15:18:32;21.23;;;13.77;;
9117;SDS011;4594;50.994;7.126;2024-02-26T15:20:57;15.97;;;10.60;;
9117;SDS011;4594;50.994;7.126;2024-02-26T15:23:23;10.67;;;8.20;;
9117;SDS011;4594;50.994;7.126;2024-02-26T15:25:49;23.33;;;13.23;;